createdAt,value
2022-08-25T00:00:58.164Z,100197.41
2022-08-25T00:03:30.532Z,100196.84
2022-08-25T00:06:07.230Z,100193.50
2022-08-25T00:08:39.648Z,100191.56
2022-08-25T00:11:16.042Z,100188.25
2022-08-25T00:13:52.886Z,100191.31
2022-08-25T00:16:24.033Z,100196.94
2022-08-25T00:18:58.887Z,100189.28
2022-08-25T00:21:29.724Z,100191.47
2022-08-25T00:24:02.835Z,100189.00
2022-08-25T00:26:33.057Z,100188.84
2022-08-25T00:29:05.033Z,100182.81
2022-08-25T00:31:39.121Z,100181.06
2022-08-25T00:34:16.346Z,100189.91
2022-08-25T00:36:47.586Z,100179.72
2022-08-25T00:39:21.462Z,100176.81
2022-08-25T00:41:52.657Z,100175.75
2022-08-25T00:44:22.489Z,100182.28
2022-08-25T00:46:55.653Z,100183.63
2022-08-25T00:49:34.736Z,100183.59
2022-08-25T00:52:14.130Z,100178.31
2022-08-25T00:55:07.816Z,100185.63
2022-08-25T00:57:41.905Z,100189.91
2022-08-25T01:00:20.101Z,100180.66
2022-08-25T01:02:49.413Z,100178.59
2022-08-25T01:05:21.836Z,100172.72
2022-08-25T01:07:51.635Z,100172.81
2022-08-25T01:10:25.169Z,100181.00
2022-08-25T01:13:01.340Z,100170.34
2022-08-25T01:15:34.746Z,100174.28
2022-08-25T01:18:13.631Z,100179.00
2022-08-25T01:20:44.337Z,100179.63
2022-08-25T01:23:16.680Z,100179.81
2022-08-25T01:26:05.839Z,100177.56
2022-08-25T01:28:36.234Z,100175.63
2022-08-25T01:31:24.168Z,100174.19
2022-08-25T01:33:53.226Z,100174.53
2022-08-25T01:36:24.612Z,100175.22
2022-08-25T01:38:54.218Z,100175.34
2022-08-25T01:41:30.423Z,100168.72
2022-08-25T01:44:01.826Z,100166.37
2022-08-25T01:46:30.724Z,100171.78
2022-08-25T01:49:03.836Z,100174.12
2022-08-25T01:51:40.996Z,100172.66
2022-08-25T01:54:09.052Z,100179.06
2022-08-25T01:56:38.814Z,100179.28
2022-08-25T01:59:07.276Z,100178.19
2022-08-25T02:01:36.614Z,100176.78
2022-08-25T02:04:06.452Z,100180.09
2022-08-25T02:06:36.621Z,100174.28
2022-08-25T02:09:09.980Z,100170.78
2022-08-25T02:11:40.955Z,100165.38
2022-08-25T02:14:11.837Z,100164.31
2022-08-25T02:16:41.889Z,100165.50
2022-08-25T02:19:12.336Z,100174.84
2022-08-25T02:21:40.466Z,100172.16
2022-08-25T02:24:09.799Z,100163.16
2022-08-25T02:26:38.761Z,100167.44
2022-08-25T02:29:07.650Z,100158.25
2022-08-25T02:31:40.198Z,100151.38
2022-08-25T02:34:13.401Z,100165.75
2022-08-25T02:36:45.105Z,100171.97
2022-08-25T02:39:19.322Z,100161.81
2022-08-25T02:41:49.931Z,100162.63
2022-08-25T02:44:24.757Z,100160.75
2022-08-25T02:46:55.261Z,100163.91
2022-08-25T02:49:26.628Z,100158.72
2022-08-25T02:51:57.013Z,100152.37
2022-08-25T02:54:29.315Z,100152.56
2022-08-25T02:56:59.557Z,100148.44
2022-08-25T02:59:29.108Z,100148.97
2022-08-25T03:01:58.117Z,100159.34
2022-08-25T03:04:26.362Z,100158.06
2022-08-25T03:06:55.710Z,100156.63
2022-08-25T03:09:23.792Z,100149.50
2022-08-25T03:11:51.704Z,100148.22
2022-08-25T03:14:20.308Z,100153.31
2022-08-25T03:16:48.388Z,100150.56
2022-08-25T03:19:18.245Z,100156.06
2022-08-25T03:21:46.773Z,100150.56
2022-08-25T03:24:14.948Z,100145.91
2022-08-25T03:26:55.857Z,100138.78
2022-08-25T03:29:28.132Z,100148.63
2022-08-25T03:32:00.256Z,100151.19
2022-08-25T03:34:31.642Z,100150.34
2022-08-25T03:36:59.906Z,100149.59
2022-08-25T03:39:28.164Z,100153.13
2022-08-25T03:41:57.110Z,100160.72
2022-08-25T03:44:25.863Z,100157.44
2022-08-25T03:46:54.425Z,100155.97
2022-08-25T03:49:23.865Z,100154.81
2022-08-25T03:51:54.140Z,100151.72
2022-08-25T03:54:24.025Z,100148.75
2022-08-25T03:56:52.436Z,100148.22
2022-08-25T03:59:20.814Z,100146.22
2022-08-25T04:01:54.458Z,100154.06
2022-08-25T04:04:25.202Z,100154.78
2022-08-25T04:06:53.438Z,100153.50
2022-08-25T04:09:22.604Z,100144.53
2022-08-25T04:11:53.612Z,100155.97
2022-08-25T04:14:22.426Z,100154.38
2022-08-25T04:16:52.999Z,100161.47
2022-08-25T04:19:23.188Z,100164.34
2022-08-25T04:21:51.922Z,100156.69
2022-08-25T04:24:29.414Z,100158.78
2022-08-25T04:26:58.437Z,100168.03
2022-08-25T04:29:27.082Z,100161.66
2022-08-25T04:31:56.214Z,100161.03
2022-08-25T04:34:30.221Z,100163.91
2022-08-25T04:37:02.939Z,100161.06
2022-08-25T04:39:31.231Z,100161.66
2022-08-25T04:42:01.139Z,100163.72
2022-08-25T04:44:31.996Z,100157.44
2022-08-25T04:47:03.038Z,100158.19
2022-08-25T04:49:31.999Z,100155.37
2022-08-25T04:52:00.383Z,100153.06
2022-08-25T04:54:29.722Z,100163.91
2022-08-25T04:57:05.684Z,100162.50
2022-08-25T04:59:34.622Z,100155.06
2022-08-25T05:02:05.512Z,100156.38
2022-08-25T05:04:35.610Z,100159.53
2022-08-25T05:07:05.745Z,100160.06
2022-08-25T05:09:34.538Z,100159.69
2022-08-25T05:12:03.445Z,100158.13
2022-08-25T05:14:32.865Z,100155.16
2022-08-25T05:17:01.590Z,100153.84
2022-08-25T05:19:30.147Z,100145.81
2022-08-25T05:21:59.041Z,100150.31
2022-08-25T05:24:28.266Z,100155.41
2022-08-25T05:26:57.921Z,100152.59
2022-08-25T05:29:32.453Z,100156.13
2022-08-25T05:32:06.008Z,100156.75
2022-08-25T05:34:36.225Z,100150.72
2022-08-25T05:37:11.554Z,100154.25
2022-08-25T05:39:47.259Z,100151.75
2022-08-25T05:42:20.618Z,100146.78
2022-08-25T05:44:49.511Z,100144.16
2022-08-25T05:47:17.698Z,100146.06
2022-08-25T05:49:45.828Z,100142.56
2022-08-25T05:52:17.719Z,100149.44
2022-08-25T05:54:48.286Z,100144.72
2022-08-25T05:57:16.751Z,100146.53
2022-08-25T05:59:44.823Z,100145.47
2022-08-25T06:02:31.425Z,100142.50
2022-08-25T06:05:00.704Z,100141.94
2022-08-25T06:07:29.976Z,100144.06
2022-08-25T06:09:57.901Z,100145.47
2022-08-25T06:12:26.181Z,100141.66
2022-08-25T06:14:53.959Z,100142.53
2022-08-25T06:17:22.988Z,100148.66
2022-08-25T06:19:55.149Z,100150.94
2022-08-25T06:22:22.895Z,100148.72
2022-08-25T06:24:51.378Z,100145.66
2022-08-25T06:27:21.091Z,100155.81
2022-08-25T06:29:49.099Z,100147.62
2022-08-25T06:32:22.934Z,100149.09
2022-08-25T06:34:51.631Z,100150.00
2022-08-25T06:37:24.627Z,100152.31
2022-08-25T06:39:54.007Z,100153.78
2022-08-25T06:42:22.714Z,100162.19
2022-08-25T06:44:51.308Z,100161.28
2022-08-25T06:47:20.255Z,100157.91
2022-08-25T06:49:48.744Z,100160.22
2022-08-25T06:52:17.150Z,100162.75
2022-08-25T06:54:45.416Z,100162.63
2022-08-25T06:57:17.289Z,100165.31
2022-08-25T06:59:46.151Z,100167.56
2022-08-25T07:02:14.151Z,100167.69
2022-08-25T07:04:52.952Z,100169.41
2022-08-25T07:07:21.631Z,100166.44
2022-08-25T07:09:50.749Z,100160.28
2022-08-25T07:12:18.870Z,100162.91
2022-08-25T07:15:03.569Z,100161.94
2022-08-25T07:17:36.502Z,100167.97
2022-08-25T07:20:04.901Z,100166.37
2022-08-25T07:22:33.184Z,100168.44
2022-08-25T07:25:02.052Z,100159.72
2022-08-25T07:27:30.018Z,100155.59
2022-08-25T07:29:58.396Z,100164.91
2022-08-25T07:32:27.361Z,100159.44
2022-08-25T07:35:13.710Z,100158.87
2022-08-25T07:37:50.216Z,100161.34
2022-08-25T07:40:25.123Z,100159.19
2022-08-25T07:42:59.062Z,100154.78
2022-08-25T07:45:30.934Z,100162.19
2022-08-25T07:48:04.641Z,100158.38
2022-08-25T07:50:32.898Z,100149.09
2022-08-25T07:53:03.341Z,100149.78
2022-08-25T07:55:32.121Z,100149.84
2022-08-25T07:58:02.517Z,100146.81
2022-08-25T08:00:33.703Z,100153.06
2022-08-25T08:03:10.030Z,100145.59
2022-08-25T08:05:42.876Z,100144.56
2022-08-25T08:08:12.518Z,100150.25
2022-08-25T08:11:02.900Z,100145.41
2022-08-25T08:13:29.466Z,100153.38
2022-08-25T08:15:58.374Z,100158.09
2022-08-25T08:18:26.089Z,100156.47
2022-08-25T08:20:55.452Z,100159.94
2022-08-25T08:23:27.776Z,100160.28
2022-08-25T08:25:56.247Z,100157.97
2022-08-25T08:28:27.955Z,100157.72
2022-08-25T08:30:57.501Z,100160.25
2022-08-25T08:33:26.089Z,100150.22
2022-08-25T08:35:59.040Z,100148.84
2022-08-25T08:38:29.109Z,100150.72
2022-08-25T08:42:10.938Z,100150.59
2022-08-25T08:44:50.632Z,100148.56
2022-08-25T08:47:29.058Z,100146.72
2022-08-25T08:50:21.628Z,100146.03
2022-08-25T08:53:03.350Z,100151.78
2022-08-25T08:55:39.763Z,100153.47
2022-08-25T08:58:30.367Z,100150.09
2022-08-25T09:00:58.862Z,100136.50
2022-08-25T09:03:33.397Z,100137.81
2022-08-25T09:06:06.797Z,100139.38
2022-08-25T09:08:35.427Z,100133.81
2022-08-25T09:11:16.408Z,100139.22
2022-08-25T09:14:10.727Z,100137.50
2022-08-25T09:16:57.554Z,100137.31
2022-08-25T09:20:03.989Z,100128.59
2022-08-25T09:22:44.380Z,100124.94
2022-08-25T09:25:29.417Z,100125.69
2022-08-25T09:28:22.432Z,100121.97
2022-08-25T09:31:48.663Z,100113.88
2022-08-25T09:34:22.744Z,100110.94
2022-08-25T09:36:53.465Z,100113.00
2022-08-25T09:39:23.478Z,100105.47
2022-08-25T09:41:52.896Z,100100.88
2022-08-25T09:44:23.159Z,100099.16
2022-08-25T09:47:18.129Z,100095.78
2022-08-25T09:50:00.827Z,100088.69
2022-08-25T09:52:32.157Z,100083.97
2022-08-25T09:55:05.769Z,100087.87
2022-08-25T09:57:35.837Z,100077.22
2022-08-25T10:00:29.001Z,100074.25
2022-08-25T10:03:05.882Z,100077.84
2022-08-25T10:05:56.152Z,100073.47
2022-08-25T10:09:07.228Z,100066.44
2022-08-25T10:11:47.871Z,100064.16
2022-08-25T10:14:21.147Z,100061.06
2022-08-25T10:16:50.320Z,100060.97
2022-08-25T10:19:24.640Z,100064.66
2022-08-25T10:22:13.179Z,100055.91
2022-08-25T10:24:43.962Z,100064.28
2022-08-25T10:27:24.054Z,100055.03
2022-08-25T10:30:08.003Z,100052.47
2022-08-25T10:32:48.026Z,100042.34
2022-08-25T10:35:48.617Z,100046.91
2022-08-25T10:38:46.311Z,100040.00
2022-08-25T10:41:40.680Z,100037.66
2022-08-25T10:44:34.136Z,100029.88
2022-08-25T10:47:33.617Z,100029.28
2022-08-25T10:50:10.432Z,100026.66
2022-08-25T10:52:51.085Z,100026.72
2022-08-25T10:55:40.406Z,100025.44
2022-08-25T10:58:25.716Z,100022.06
2022-08-25T11:01:11.437Z,100022.91
2022-08-25T11:03:44.798Z,100009.69
2022-08-25T11:06:19.000Z,100015.09
2022-08-25T11:08:54.878Z,100005.00
2022-08-25T11:11:32.951Z,100008.22
2022-08-25T11:14:50.913Z,100001.50
2022-08-25T11:17:40.388Z,99996.88
2022-08-25T11:20:26.594Z,99993.50
2022-08-25T11:23:12.132Z,99990.41
2022-08-25T11:25:46.122Z,99990.41
2022-08-25T11:28:19.259Z,99990.31
2022-08-25T11:30:50.324Z,99981.13
2022-08-25T11:33:19.490Z,99977.44
2022-08-25T11:35:51.554Z,99971.88
2022-08-25T11:38:40.374Z,99962.53
2022-08-25T11:41:38.288Z,99972.56
2022-08-25T11:44:09.247Z,99948.78
2022-08-25T11:46:48.412Z,99958.38
2022-08-25T11:49:16.542Z,99955.87
2022-08-25T11:51:50.621Z,99945.25
2022-08-25T11:54:28.726Z,99952.34
2022-08-25T11:57:04.397Z,99952.56
2022-08-25T11:59:56.671Z,99943.19
2022-08-25T12:02:48.233Z,99946.31
2022-08-25T12:05:19.502Z,99947.13
2022-08-25T12:07:50.164Z,99936.19
2022-08-25T12:10:21.736Z,99937.44
2022-08-25T12:13:02.922Z,99938.59
2022-08-25T12:15:44.620Z,99929.81
2022-08-25T12:18:15.899Z,99926.34
2022-08-25T12:20:53.470Z,99925.53
2022-08-25T12:23:36.287Z,99923.72
2022-08-25T12:26:26.314Z,99925.72
2022-08-25T12:28:57.543Z,99929.16
2022-08-25T12:32:09.260Z,99925.91
2022-08-25T12:34:55.015Z,99926.25
2022-08-25T12:37:25.356Z,99923.63
2022-08-25T12:40:05.284Z,99918.28
2022-08-25T12:42:45.107Z,99914.56
2022-08-25T12:45:15.057Z,99911.75
2022-08-25T12:47:47.566Z,99910.72
2022-08-25T12:50:41.110Z,99913.97
2022-08-25T12:53:12.134Z,99916.44
2022-08-25T12:55:45.212Z,99902.37
2022-08-25T12:58:14.005Z,99911.84
2022-08-25T13:00:59.207Z,99910.00
2022-08-25T13:04:09.365Z,99910.25
2022-08-25T13:06:43.698Z,99903.97
2022-08-25T13:09:32.732Z,99906.94
2022-08-25T13:12:16.105Z,99908.00
2022-08-25T13:14:53.736Z,99894.97
2022-08-25T13:17:34.590Z,99896.56
2022-08-25T13:20:13.636Z,99895.37
2022-08-25T13:22:42.556Z,99889.97
2022-08-25T13:25:22.986Z,99890.03
2022-08-25T13:27:59.921Z,99895.88
2022-08-25T13:30:31.828Z,99893.56
2022-08-25T13:32:59.939Z,99889.59
2022-08-25T13:35:32.899Z,99892.75
2022-08-25T13:38:15.276Z,99885.00
2022-08-25T13:40:44.305Z,99878.34
2022-08-25T13:43:13.890Z,99875.62
2022-08-25T13:45:47.193Z,99876.22
2022-08-25T13:48:33.688Z,99868.88
2022-08-25T13:51:18.977Z,99878.63
2022-08-25T13:53:54.085Z,99877.16
2022-08-25T13:56:41.020Z,99874.56
2022-08-25T13:59:25.820Z,99860.94
2022-08-25T14:01:55.225Z,99876.06
2022-08-25T14:04:51.083Z,99872.34
2022-08-25T14:07:20.559Z,99871.00
2022-08-25T14:10:01.591Z,99866.53
2022-08-25T14:12:41.197Z,99862.13
2022-08-25T14:15:22.036Z,99867.12
2022-08-25T14:18:27.154Z,99869.00
2022-08-25T14:20:56.656Z,99866.53
2022-08-25T14:23:27.719Z,99862.34
2022-08-25T14:25:57.861Z,99863.25
2022-08-25T14:28:36.894Z,99854.25
2022-08-25T14:31:35.035Z,99849.81
2022-08-25T14:34:18.005Z,99850.72
2022-08-25T14:37:28.478Z,99852.22
2022-08-25T14:40:08.398Z,99843.44
2022-08-25T14:43:03.094Z,99845.12
2022-08-25T14:45:56.591Z,99849.03
2022-08-25T14:48:44.635Z,99847.97
2022-08-25T14:51:19.501Z,99847.69
2022-08-25T14:54:09.770Z,99834.72
2022-08-25T14:56:57.793Z,99837.88
2022-08-25T14:59:55.567Z,99835.38
2022-08-25T15:02:53.734Z,99838.59
2022-08-25T15:05:40.660Z,99841.91
2022-08-25T15:08:41.511Z,99835.22
2022-08-25T15:11:41.491Z,99848.44
2022-08-25T15:14:28.917Z,99839.69
2022-08-25T15:17:07.967Z,99836.38
2022-08-25T15:19:56.853Z,99841.37
2022-08-25T15:22:41.881Z,99837.28
2022-08-25T15:25:17.973Z,99841.63
2022-08-25T15:27:50.409Z,99832.25
2022-08-25T15:30:31.214Z,99833.31
2022-08-25T15:33:08.399Z,99835.19
2022-08-25T15:35:48.569Z,99833.53
2022-08-25T15:38:27.136Z,99832.91
2022-08-25T15:41:05.352Z,99833.13
2022-08-25T15:43:44.949Z,99824.81
2022-08-25T15:46:20.506Z,99827.69
2022-08-25T15:49:00.918Z,99825.19
2022-08-25T15:51:37.440Z,99813.50
2022-08-25T15:54:16.646Z,99811.41
2022-08-25T15:56:58.450Z,99817.06
2022-08-25T15:59:33.138Z,99821.00
2022-08-25T16:02:05.822Z,99813.72
2022-08-25T16:04:50.222Z,99807.94
2022-08-25T16:07:19.446Z,99809.16
2022-08-25T16:09:52.621Z,99811.47
2022-08-25T16:12:24.728Z,99804.19
2022-08-25T16:14:58.523Z,99808.75
2022-08-25T16:17:29.518Z,99805.00
2022-08-25T16:20:00.463Z,99800.56
2022-08-25T16:22:28.472Z,99805.75
2022-08-25T16:25:06.912Z,99806.16
2022-08-25T16:27:38.540Z,99807.91
2022-08-25T16:30:14.961Z,99809.56
2022-08-25T16:32:51.553Z,99806.62
2022-08-25T16:35:24.860Z,99803.28
2022-08-25T16:38:00.212Z,99800.47
2022-08-25T16:40:34.012Z,99808.84
2022-08-25T16:43:20.682Z,99808.19
2022-08-25T16:46:08.153Z,99808.59
2022-08-25T16:48:39.116Z,99808.59
2022-08-25T16:51:15.433Z,99801.47
2022-08-25T16:54:06.491Z,99805.22
2022-08-25T16:56:42.594Z,99803.72
2022-08-25T16:59:19.485Z,99804.47
2022-08-25T17:01:58.410Z,99812.94
2022-08-25T17:04:32.142Z,99814.78
2022-08-25T17:07:10.120Z,99822.22
2022-08-25T17:09:40.945Z,99823.44
2022-08-25T17:12:15.701Z,99819.03
2022-08-25T17:14:58.625Z,99819.38
2022-08-25T17:17:41.411Z,99826.16
2022-08-25T17:20:17.797Z,99821.44
2022-08-25T17:22:51.371Z,99823.34
2022-08-25T17:25:20.946Z,99818.25
2022-08-25T17:27:58.938Z,99826.37
2022-08-25T17:30:29.475Z,99826.75
2022-08-25T17:33:01.020Z,99830.94
2022-08-25T17:35:31.787Z,99826.44
2022-08-25T17:38:07.447Z,99821.69
2022-08-25T17:40:42.622Z,99829.12
2022-08-25T17:43:17.650Z,99831.50
2022-08-25T17:45:49.168Z,99844.84
2022-08-25T17:48:18.840Z,99838.19
2022-08-25T17:50:58.286Z,99832.34
2022-08-25T17:53:32.352Z,99843.59
2022-08-25T17:56:07.242Z,99842.19
2022-08-25T17:58:45.424Z,99849.28
2022-08-25T18:01:25.943Z,99855.13
2022-08-25T18:04:03.023Z,99846.19
2022-08-25T18:06:34.924Z,99854.00
2022-08-25T18:09:04.880Z,99852.06
2022-08-25T18:11:33.694Z,99856.53
2022-08-25T18:14:06.447Z,99854.88
2022-08-25T18:16:39.277Z,99851.41
2022-08-25T18:19:12.635Z,99855.00
2022-08-25T18:21:43.462Z,99851.38
2022-08-25T18:24:13.332Z,99852.69
2022-08-25T18:26:41.637Z,99861.34
2022-08-25T18:29:18.132Z,99858.84
2022-08-25T18:31:49.881Z,99859.28
2022-08-25T18:34:22.231Z,99855.66
2022-08-25T18:36:52.745Z,99860.56
2022-08-25T18:39:39.483Z,99860.16
2022-08-25T18:42:10.365Z,99859.91
2022-08-25T18:44:43.730Z,99856.25
2022-08-25T18:47:14.898Z,99864.97
2022-08-25T18:49:42.968Z,99857.78
2022-08-25T18:52:12.178Z,99864.81
2022-08-25T18:54:42.767Z,99865.13
2022-08-25T18:57:15.255Z,99858.06
2022-08-25T18:59:45.870Z,99858.44
2022-08-25T19:02:14.239Z,99864.31
2022-08-25T19:04:44.902Z,99866.16
2022-08-25T19:07:14.348Z,99864.28
2022-08-25T19:09:42.475Z,99864.63
2022-08-25T19:12:11.727Z,99864.13
2022-08-25T19:14:51.176Z,99859.97
2022-08-25T19:17:20.295Z,99857.78
2022-08-25T19:19:55.376Z,99858.28
2022-08-25T19:22:40.765Z,99860.78
2022-08-25T19:25:11.012Z,99872.13
2022-08-25T19:27:41.417Z,99863.81
2022-08-25T19:30:11.268Z,99872.78
2022-08-25T19:32:42.720Z,99859.41
2022-08-25T19:35:16.235Z,99863.44
2022-08-25T19:37:44.854Z,99864.59
2022-08-25T19:40:14.178Z,99858.94
2022-08-25T19:42:54.703Z,99860.12
2022-08-25T19:45:23.792Z,99862.47
2022-08-25T19:47:53.360Z,99856.78
2022-08-25T19:50:22.559Z,99859.28
2022-08-25T19:52:51.531Z,99856.44
2022-08-25T19:55:22.150Z,99859.75
2022-08-25T19:57:51.850Z,99861.63
2022-08-25T20:00:29.467Z,99858.78
2022-08-25T20:03:00.702Z,99851.91
2022-08-25T20:05:29.725Z,99855.38
2022-08-25T20:08:00.196Z,99847.16
2022-08-25T20:10:31.906Z,99850.16
2022-08-25T20:13:05.566Z,99849.66
2022-08-25T20:15:38.724Z,99848.97
2022-08-25T20:18:08.937Z,99850.72
2022-08-25T20:20:38.246Z,99855.56
2022-08-25T20:23:29.155Z,99850.66
2022-08-25T20:25:59.690Z,99849.00
2022-08-25T20:28:30.600Z,99859.41
2022-08-25T20:31:03.850Z,99853.88
2022-08-25T20:33:33.753Z,99854.25
2022-08-25T20:36:02.477Z,99851.88
2022-08-25T20:38:32.056Z,99852.25
2022-08-25T20:41:01.786Z,99854.59
2022-08-25T20:43:32.107Z,99850.88
2022-08-25T20:46:01.676Z,99852.69
2022-08-25T20:48:30.187Z,99856.72
2022-08-25T20:50:58.900Z,99849.50
2022-08-25T20:53:28.969Z,99849.34
2022-08-25T20:55:58.539Z,99850.66
2022-08-25T20:58:26.682Z,99852.81
2022-08-25T21:00:54.888Z,99847.47
2022-08-25T21:03:23.475Z,99852.88
2022-08-25T21:05:54.118Z,99862.50
2022-08-25T21:08:26.097Z,99856.84
2022-08-25T21:10:54.466Z,99866.75
2022-08-25T21:13:22.860Z,99863.72
2022-08-25T21:15:51.165Z,99859.62
2022-08-25T21:18:20.003Z,99862.13
2022-08-25T21:20:47.933Z,99856.72
2022-08-25T21:23:18.001Z,99853.81
2022-08-25T21:25:46.818Z,99851.81
2022-08-25T21:28:15.416Z,99844.22
2022-08-25T21:30:44.808Z,99844.06
2022-08-25T21:33:15.748Z,99842.88
2022-08-25T21:35:46.973Z,99843.50
2022-08-25T21:38:15.073Z,99842.66
2022-08-25T21:40:44.920Z,99841.97
2022-08-25T21:43:14.463Z,99839.41
2022-08-25T21:45:47.225Z,99841.53
2022-08-25T21:48:16.434Z,99847.25
2022-08-25T21:50:45.743Z,99842.72
2022-08-25T21:53:13.847Z,99846.09
2022-08-25T21:55:45.864Z,99845.06
2022-08-25T21:58:15.372Z,99840.81
2022-08-25T22:00:47.024Z,99836.53
2022-08-25T22:03:18.170Z,99842.75
2022-08-25T22:05:46.415Z,99839.16
2022-08-25T22:08:17.869Z,99839.63
2022-08-25T22:10:51.728Z,99841.66
2022-08-25T22:13:24.459Z,99842.91
2022-08-25T22:15:56.898Z,99837.69
2022-08-25T22:18:30.869Z,99830.31
2022-08-25T22:21:07.270Z,99842.75
2022-08-25T22:23:44.807Z,99838.59
2022-08-25T22:26:17.165Z,99843.59
2022-08-25T22:28:51.890Z,99840.53
2022-08-25T22:31:22.931Z,99845.31
2022-08-25T22:33:56.531Z,99844.72
2022-08-25T22:36:31.313Z,99842.44
2022-08-25T22:39:02.230Z,99843.28
2022-08-25T22:41:33.321Z,99836.78
2022-08-25T22:44:05.040Z,99842.88
2022-08-25T22:46:34.358Z,99842.13
2022-08-25T22:49:06.115Z,99841.44
2022-08-25T22:51:39.455Z,99838.78
2022-08-25T22:54:16.331Z,99833.87
2022-08-25T22:56:46.856Z,99835.66
2022-08-25T22:59:16.218Z,99836.03
2022-08-25T23:01:46.700Z,99832.94
2022-08-25T23:04:17.712Z,99826.00
2022-08-25T23:06:50.139Z,99836.31
2022-08-25T23:09:23.680Z,99822.41
2022-08-25T23:11:56.341Z,99829.84
2022-08-25T23:14:36.560Z,99825.00
2022-08-25T23:17:09.205Z,99827.84
2022-08-25T23:19:43.077Z,99828.91
2022-08-25T23:22:13.820Z,99824.25
2022-08-25T23:24:49.977Z,99815.53
2022-08-25T23:27:23.354Z,99819.50
2022-08-25T23:29:54.231Z,99815.38
2022-08-25T23:32:28.000Z,99823.19
2022-08-25T23:34:59.562Z,99818.59
2022-08-25T23:37:29.339Z,99817.59
2022-08-25T23:40:00.307Z,99826.69
2022-08-25T23:42:31.416Z,99813.62
2022-08-25T23:45:07.366Z,99811.03
2022-08-25T23:47:38.648Z,99809.06
2022-08-25T23:50:10.100Z,99808.00
2022-08-25T23:52:41.034Z,99814.50
2022-08-25T23:55:13.594Z,99808.75
2022-08-25T23:57:43.074Z,99805.19
